Time;durP1;ratioP1;P1;durP2;ratioP2;P2;SDS_P1;SDS_P2;PMS_P1;PMS_P2;Temp;Humidity;BMP_temperature;BMP_pressure;BME280_temperature;BME280_humidity;BME280_pressure;Samples;Min_cycle;Max_cycle;Signal;HPM_P1;HPM_P2
2023/05/13 00:02:36;;;;;;;6.72;4.03;;;;;;;15.70;59.78;102129.47;6224701;28;20228;-68
2023/05/13 00:05:57;;;;;;;5.73;3.63;;;;;;;15.72;59.93;102117.47;6246262;28;20228;-66
2023/05/13 00:09:19;;;;;;;4.47;3.77;;;;;;;15.63;60.03;102115.56;6248066;28;20232;-65
2023/05/13 00:12:40;;;;;;;5.07;4.57;;;;;;;15.54;60.26;102116.38;6236319;28;20235;-67
2023/05/13 00:16:00;;;;;;;6.37;3.90;;;;;;;15.49;60.58;102118.69;6242648;28;20228;-68
2023/05/13 00:19:21;;;;;;;4.17;3.67;;;;;;;15.58;60.35;102111.56;6229977;28;20634;-66
2023/05/13 00:22:42;;;;;;;3.57;3.27;;;;;;;15.41;60.90;102117.59;6234586;28;20504;-68
2023/05/13 00:26:04;;;;;;;3.20;2.80;;;;;;;15.40;61.07;102122.16;6247223;28;20227;-68
2023/05/13 00:29:25;;;;;;;3.27;2.73;;;;;;;15.39;61.17;102114.16;6246257;28;20560;-67
2023/05/13 00:32:46;;;;;;;4.47;3.33;;;;;;;15.34;61.49;102120.00;6232839;28;20314;-67
2023/05/13 00:36:08;;;;;;;2.77;2.43;;;;;;;15.32;61.59;102115.69;6233757;28;20235;-67
2023/05/13 00:39:29;;;;;;;7.83;3.77;;;;;;;15.26;61.58;102119.81;6252941;28;20231;-67
2023/05/13 00:42:52;;;;;;;3.90;2.90;;;;;;;15.15;61.45;102117.19;6230856;28;20223;-67
2023/05/13 00:46:14;;;;;;;3.27;2.93;;;;;;;15.14;62.29;102119.03;6247192;28;20235;-67
2023/05/13 00:49:35;;;;;;;4.10;3.70;;;;;;;15.15;62.21;102120.78;6249337;28;21017;-68
2023/05/13 00:52:57;;;;;;;4.23;3.13;;;;;;;15.12;62.20;102120.19;6247497;28;20326;-68
2023/05/13 00:56:20;;;;;;;3.53;3.23;;;;;;;14.95;62.59;102129.81;6248540;28;20229;-67
2023/05/13 00:59:42;;;;;;;6.40;3.90;;;;;;;14.96;63.02;102125.22;6247887;28;20656;-67
2023/05/13 01:03:11;;;;;;;5.03;3.87;;;;;;;14.94;63.05;102128.09;6251411;28;20236;-67
2023/05/13 01:06:40;;;;;;;3.90;3.60;;;;;;;14.90;63.36;102123.06;6236585;28;20250;-67
2023/05/13 01:10:08;;;;;;;5.13;4.43;;;;;;;14.83;63.86;102121.88;6246058;28;20231;-67
2023/05/13 01:13:35;;;;;;;4.40;4.07;;;;;;;14.82;63.90;102121.00;6246824;28;20243;-68
2023/05/13 01:17:01;;;;;;;6.03;4.07;;;;;;;14.83;64.05;102125.44;6243287;28;20235;-67
2023/05/13 01:20:26;;;;;;;8.47;3.93;;;;;;;14.73;64.32;102126.34;6247994;28;20227;-67
2023/05/13 01:23:49;;;;;;;6.83;3.33;;;;;;;14.71;64.38;102125.63;6253011;28;20228;-66
2023/05/13 01:27:10;;;;;;;4.33;2.83;;;;;;;14.73;64.27;102120.94;6233390;28;20310;-67
2023/05/13 01:30:31;;;;;;;5.93;4.23;;;;;;;14.65;64.70;102131.59;6237418;28;20617;-67
2023/05/13 01:33:52;;;;;;;5.80;3.93;;;;;;;14.64;64.59;102128.03;6248979;28;20315;-66
2023/05/13 01:37:13;;;;;;;6.83;4.83;;;;;;;14.57;64.85;102131.38;6247944;28;20252;-67
2023/05/13 01:40:37;;;;;;;5.90;3.50;;;;;;;14.53;65.17;102136.22;6255025;28;20582;-67
2023/05/13 01:44:00;;;;;;;6.13;4.47;;;;;;;14.48;65.70;102137.63;6238741;28;20339;-67
2023/05/13 01:47:22;;;;;;;5.23;4.73;;;;;;;14.46;65.75;102139.59;6238926;28;20227;-67
2023/05/13 01:50:44;;;;;;;5.07;4.67;;;;;;;14.44;65.96;102137.00;6243139;28;20587;-67
2023/05/13 01:54:05;;;;;;;3.67;3.37;;;;;;;14.33;66.17;102135.19;6236734;28;20232;-67
2023/05/13 01:57:30;;;;;;;5.87;4.37;;;;;;;14.41;65.80;102132.69;6242628;28;22543;-67
2023/05/13 02:00:51;;;;;;;13.27;4.10;;;;;;;14.27;66.38;102129.38;6245193;28;20244;-67
2023/05/13 02:04:12;;;;;;;5.13;4.57;;;;;;;14.16;66.83;102132.16;6253116;28;20718;-67
2023/05/13 02:07:35;;;;;;;4.80;4.07;;;;;;;14.21;66.97;102136.19;6249389;28;20609;-67
2023/05/13 02:10:56;;;;;;;4.40;3.00;;;;;;;14.14;67.16;102126.84;6249931;28;20582;-67
2023/05/13 02:14:19;;;;;;;5.23;4.13;;;;;;;14.17;67.03;102132.03;6229920;28;20605;-67
2023/05/13 02:17:40;;;;;;;4.80;4.23;;;;;;;14.13;67.51;102132.41;6241949;28;20223;-67
2023/05/13 02:21:01;;;;;;;5.33;4.57;;;;;;;14.09;67.51;102139.06;6528541;22;20322;-67
2023/05/13 02:24:22;;;;;;;5.73;4.30;;;;;;;14.07;67.92;102136.50;6233528;28;20228;-67
2023/05/13 02:27:43;;;;;;;5.97;3.60;;;;;;;14.03;67.63;102126.03;6226468;28;20236;-68
2023/05/13 02:31:05;;;;;;;9.87;4.83;;;;;;;13.96;68.01;102135.66;6255477;28;20256;-67
2023/05/13 02:34:26;;;;;;;7.67;5.13;;;;;;;14.00;68.09;102139.81;6235340;28;20748;-66
2023/05/13 02:37:48;;;;;;;4.83;4.50;;;;;;;13.96;68.03;102138.38;6221863;28;20610;-67
2023/05/13 02:41:10;;;;;;;5.43;4.97;;;;;;;13.94;68.48;102135.78;6237540;28;20227;-68
2023/05/13 02:44:31;;;;;;;5.90;5.30;;;;;;;13.89;68.51;102131.75;6241574;28;20228;-66
2023/05/13 02:47:53;;;;;;;5.67;5.13;;;;;;;13.80;68.90;102140.63;6225093;28;20232;-67
2023/05/13 02:51:14;;;;;;;5.47;4.97;;;;;;;13.77;69.21;102144.44;6235178;28;20499;-68
2023/05/13 02:54:36;;;;;;;5.47;4.97;;;;;;;13.88;68.82;102140.84;6240610;28;20225;-67
2023/05/13 02:57:57;;;;;;;6.07;4.97;;;;;;;13.85;68.93;102135.69;6241013;28;20228;-66
2023/05/13 03:01:19;;;;;;;6.30;4.33;;;;;;;13.72;69.15;102135.84;6237143;28;20227;-67
2023/05/13 03:04:41;;;;;;;5.90;4.60;;;;;;;13.74;69.28;102130.28;6237097;28;20227;-67
2023/05/13 03:08:02;;;;;;;4.33;4.03;;;;;;;13.70;69.25;102137.81;6212641;28;20253;-67
2023/05/13 03:11:23;;;;;;;5.63;4.90;;;;;;;13.68;69.43;102138.94;6239599;28;20220;-67
2023/05/13 03:14:44;;;;;;;6.03;5.20;;;;;;;13.69;69.50;102135.22;6211683;28;20527;-68
2023/05/13 03:18:05;;;;;;;6.23;5.43;;;;;;;13.62;69.58;102137.59;6189923;28;20245;-67
2023/05/13 03:21:28;;;;;;;5.77;4.50;;;;;;;13.60;70.26;102137.69;6202591;28;20256;-67
2023/05/13 03:24:49;;;;;;;6.27;5.67;;;;;;;13.68;69.86;102145.22;6214759;28;20225;-68
2023/05/13 03:28:10;;;;;;;6.13;4.97;;;;;;;13.58;70.04;102139.66;6212221;28;20631;-67
2023/05/13 03:31:35;;;;;;;7.07;5.37;;;;;;;13.72;70.01;102143.97;6202722;28;20244;-67
2023/05/13 03:34:59;;;;;;;7.03;5.80;;;;;;;13.55;70.01;102152.59;6205385;28;20237;-67
2023/05/13 03:38:22;;;;;;;6.53;5.93;;;;;;;13.52;70.09;102144.72;6185035;28;20225;-68
2023/05/13 03:41:45;;;;;;;9.33;4.83;;;;;;;13.49;70.26;102140.44;6212838;28;20300;-68
2023/05/13 03:45:08;;;;;;;6.20;5.23;;;;;;;13.52;70.37;102142.00;6207143;28;20233;-68
2023/05/13 03:48:31;;;;;;;6.30;4.30;;;;;;;13.49;70.46;102140.44;6196164;28;20233;-67
2023/05/13 03:51:54;;;;;;;8.83;6.03;;;;;;;13.55;70.33;102145.34;6201742;28;20418;-67
2023/05/13 03:55:17;;;;;;;6.00;5.40;;;;;;;13.56;70.03;102152.47;6225966;28;20622;-67
2023/05/13 03:58:38;;;;;;;6.23;5.67;;;;;;;13.62;70.14;102143.84;6205821;28;20237;-67
2023/05/13 04:01:59;;;;;;;5.53;5.03;;;;;;;13.59;70.12;102154.94;6206543;28;20225;-67
2023/05/13 04:05:20;;;;;;;5.57;5.07;;;;;;;13.64;70.06;102150.00;6210086;28;20224;-67
2023/05/13 04:08:41;;;;;;;5.53;4.97;;;;;;;13.74;69.89;102147.41;6197143;28;20237;-67
2023/05/13 04:12:05;;;;;;;6.67;5.67;;;;;;;13.77;69.84;102144.44;6199282;28;20347;-68
2023/05/13 04:15:25;;;;;;;6.80;4.70;;;;;;;13.83;69.04;102151.22;6204033;28;21426;-67
2023/05/13 04:18:46;;;;;;;8.03;5.13;;;;;;;13.82;68.95;102152.19;6180322;28;22850;-67
2023/05/13 04:22:07;;;;;;;6.30;4.60;;;;;;;13.76;69.21;102147.28;6198909;28;20225;-67
2023/05/13 04:25:27;;;;;;;6.80;5.93;;;;;;;13.84;69.02;102142.09;6208990;28;20324;-67
2023/05/13 04:28:50;;;;;;;8.00;5.80;;;;;;;13.90;69.11;102157.84;6192571;28;20237;-66
2023/05/13 04:32:14;;;;;;;6.27;5.57;;;;;;;13.94;68.98;102151.19;6206894;28;20229;-67
2023/05/13 04:35:35;;;;;;;5.93;5.43;;;;;;;13.92;69.03;102154.03;6214132;28;20685;-67
2023/05/13 04:38:58;;;;;;;6.10;5.50;;;;;;;14.09;68.78;102155.34;6206827;28;20237;-67
2023/05/13 04:42:19;;;;;;;5.77;5.27;;;;;;;14.08;68.63;102159.06;6210940;28;20224;-67
2023/05/13 04:45:41;;;;;;;5.47;4.90;;;;;;;14.14;68.35;102164.81;6228301;28;20862;-67
2023/05/13 04:49:04;;;;;;;5.67;5.17;;;;;;;14.16;68.26;102168.25;6204205;28;20502;-66
2023/05/13 04:52:25;;;;;;;4.63;4.23;;;;;;;14.27;67.91;102164.66;6211073;28;20236;-66
2023/05/13 04:55:47;;;;;;;7.03;4.70;;;;;;;14.37;67.69;102166.50;6213271;28;20266;-66
2023/05/13 04:59:08;;;;;;;8.93;6.70;;;;;;;14.47;67.63;102171.16;6206779;28;20570;-67
2023/05/13 05:02:30;;;;;;;9.70;5.53;;;;;;;14.52;67.24;102177.06;6189112;28;21982;-68
2023/05/13 05:05:52;;;;;;;4.53;4.13;;;;;;;14.60;66.90;102177.28;6215306;28;20229;-68
2023/05/13 05:09:13;;;;;;;6.57;5.60;;;;;;;14.58;66.78;102179.25;6208636;28;20571;-67
2023/05/13 05:12:34;;;;;;;7.00;5.00;;;;;;;14.66;66.33;102182.19;6203339;28;20236;-67
2023/05/13 05:15:55;;;;;;;7.80;4.73;;;;;;;14.82;66.34;102182.59;6229406;28;20225;-68
2023/05/13 05:19:22;;;;;;;7.60;6.13;;;;;;;14.88;65.66;102187.50;6217840;28;20276;-68
2023/05/13 05:22:43;;;;;;;6.97;4.93;;;;;;;15.03;65.61;102186.19;6185861;28;20233;-67
2023/05/13 05:26:06;;;;;;;5.50;5.00;;;;;;;15.12;64.73;102185.38;6213145;28;20808;-67
2023/05/13 05:29:28;;;;;;;5.23;4.73;;;;;;;15.20;64.19;102183.72;6212586;28;20249;-67
2023/05/13 05:32:49;;;;;;;6.87;5.47;;;;;;;15.28;63.87;102191.19;6203648;28;20224;-67
2023/05/13 05:36:11;;;;;;;6.07;5.47;;;;;;;15.32;63.76;102186.34;6210238;28;20229;-67
2023/05/13 05:39:34;;;;;;;5.63;4.63;;;;;;;15.42;63.05;102187.25;6217838;28;20310;-67
2023/05/13 05:42:55;;;;;;;4.37;3.63;;;;;;;15.47;63.25;102188.63;6200951;28;20233;-67
2023/05/13 05:46:16;;;;;;;6.37;4.70;;;;;;;15.59;62.86;102195.69;6214584;28;20237;-67
2023/05/13 05:49:38;;;;;;;5.23;4.43;;;;;;;15.74;62.27;102191.59;6219556;28;20235;-67
2023/05/13 05:53:01;;;;;;;4.53;4.13;;;;;;;15.84;62.01;102180.75;6199962;28;20249;-67
2023/05/13 05:56:22;;;;;;;5.17;4.73;;;;;;;15.90;61.53;102185.63;6221320;28;20229;-67
2023/05/13 05:59:44;;;;;;;5.13;4.33;;;;;;;16.00;61.01;102184.66;6211355;28;20248;-67
2023/05/13 06:03:06;;;;;;;4.30;3.63;;;;;;;15.95;60.30;102181.50;6188640;28;20324;-67
2023/05/13 06:06:27;;;;;;;4.27;3.87;;;;;;;16.08;60.71;102181.25;6198271;28;20540;-68
2023/05/13 06:09:50;;;;;;;4.03;3.73;;;;;;;16.20;60.13;102195.59;6214181;28;20233;-67
2023/05/13 06:13:11;;;;;;;5.67;3.97;;;;;;;16.37;59.84;102192.19;6189077;28;20253;-68
2023/05/13 06:16:32;;;;;;;12.80;3.73;;;;;;;16.49;59.09;102188.31;6213848;28;20237;-67
2023/05/13 06:19:54;;;;;;;5.27;4.37;;;;;;;16.58;58.91;102190.25;6208140;28;20237;-67
2023/05/13 06:23:15;;;;;;;6.97;3.80;;;;;;;16.62;58.19;102189.81;6203934;28;20237;-67
2023/05/13 06:26:37;;;;;;;3.70;3.17;;;;;;;16.70;58.01;102189.97;6223901;28;20228;-68
2023/05/13 06:30:00;;;;;;;3.20;3.00;;;;;;;16.81;57.80;102188.09;6218575;28;20298;-68
2023/05/13 06:33:21;;;;;;;4.63;3.50;;;;;;;16.96;56.95;102190.19;6214255;28;20228;-68
2023/05/13 06:36:42;;;;;;;3.50;3.20;;;;;;;16.97;56.37;102191.94;6221448;28;20261;-67
2023/05/13 06:40:03;;;;;;;4.07;3.67;;;;;;;17.08;55.79;102190.91;6218853;28;20228;-67
2023/05/13 06:43:27;;;;;;;8.93;4.13;;;;;;;17.03;55.43;102201.38;6188817;28;20228;-67
2023/05/13 06:46:51;;;;;;;5.27;3.37;;;;;;;17.28;55.51;102188.00;6206004;28;20228;-68
2023/05/13 06:50:12;;;;;;;4.23;3.47;;;;;;;17.40;55.18;102194.13;6201185;28;20381;-68
2023/05/13 06:53:33;;;;;;;3.53;2.97;;;;;;;17.49;54.70;102191.41;6208404;28;20233;-67
2023/05/13 06:56:54;;;;;;;4.67;3.30;;;;;;;17.82;54.51;102194.56;6217797;28;20225;-68
2023/05/13 07:00:18;;;;;;;3.47;3.17;;;;;;;17.81;53.78;102191.00;6218708;28;20530;-67
2023/05/13 07:03:39;;;;;;;3.17;2.87;;;;;;;17.90;53.39;102189.25;6202641;28;20320;-67
2023/05/13 07:06:59;;;;;;;5.63;3.23;;;;;;;17.94;53.33;102193.38;6203583;28;20241;-67
2023/05/13 07:10:20;;;;;;;2.93;2.73;;;;;;;18.08;53.11;102187.41;6218451;28;20240;-68
2023/05/13 07:13:41;;;;;;;3.97;3.03;;;;;;;18.02;52.97;102193.47;6201268;28;20316;-68
2023/05/13 07:17:03;;;;;;;5.20;4.37;;;;;;;18.14;52.86;102187.66;6205554;28;20225;-67
2023/05/13 07:20:25;;;;;;;3.60;3.30;;;;;;;18.41;52.70;102194.94;6225257;28;20229;-68
2023/05/13 07:23:46;;;;;;;3.00;2.80;;;;;;;18.51;52.31;102193.03;6208545;28;20746;-68
2023/05/13 07:27:07;;;;;;;4.00;2.40;;;;;;;18.57;52.39;102186.94;6206007;28;20246;-69
2023/05/13 07:30:27;;;;;;;4.55;2.53;;;;;;;18.59;51.77;102194.97;6187729;28;20236;-68
2023/05/13 07:33:50;;;;;;;2.33;2.13;;;;;;;18.79;51.68;102196.56;6188407;28;20779;-68
2023/05/13 07:37:11;;;;;;;5.10;3.80;;;;;;;19.01;51.37;102194.19;6210373;28;20237;-68
2023/05/13 07:40:31;;;;;;;3.53;3.03;;;;;;;19.13;51.46;102186.56;6225973;28;20240;-69
2023/05/13 07:43:52;;;;;;;3.40;2.90;;;;;;;19.17;51.25;102186.09;6204773;28;20225;-68
2023/05/13 07:47:14;;;;;;;4.07;3.67;;;;;;;19.07;50.77;102198.16;6211807;28;20542;-68
2023/05/13 07:50:36;;;;;;;5.82;3.10;;;;;;;19.28;50.66;102184.09;6224259;28;20599;-68
2023/05/13 07:53:57;;;;;;;2.55;2.15;;;;;;;19.37;50.26;102181.31;6222714;28;20614;-68
2023/05/13 07:57:18;;;;;;;2.53;2.33;;;;;;;19.56;50.04;102183.84;6221098;28;20244;-68
2023/05/13 08:00:39;;;;;;;3.05;2.65;;;;;;;19.72;50.15;102183.03;6210324;28;20332;-68
2023/05/13 08:04:00;;;;;;;3.40;3.10;;;;;;;19.61;49.57;102184.19;6191162;28;20237;-68
2023/05/13 08:07:22;;;;;;;2.97;2.75;;;;;;;19.86;49.36;102191.50;6188208;28;20324;-68
2023/05/13 08:10:42;;;;;;;3.88;2.67;;;;;;;20.03;48.60;102181.47;6190143;28;20225;-68
2023/05/13 08:14:04;;;;;;;4.15;3.17;;;;;;;20.27;48.75;102178.84;6192178;28;20582;-68
2023/05/13 08:17:25;;;;;;;5.18;3.28;;;;;;;20.42;48.42;102181.78;6188176;28;20504;-68
2023/05/13 08:20:46;;;;;;;4.10;2.78;;;;;;;20.49;47.72;102183.69;6195395;28;20233;-67
2023/05/13 08:24:09;;;;;;;5.45;3.00;;;;;;;20.57;46.49;102186.44;6193836;28;20253;-69
2023/05/13 08:27:29;;;;;;;4.20;2.30;;;;;;;20.50;46.39;102171.72;6192874;28;20320;-69
2023/05/13 08:30:50;;;;;;;3.17;2.70;;;;;;;20.70;45.64;102172.22;6199033;28;20236;-68
2023/05/13 08:34:11;;;;;;;2.28;2.08;;;;;;;20.98;45.96;102170.88;6215172;28;20236;-67
2023/05/13 08:37:32;;;;;;;3.15;2.95;;;;;;;21.13;45.67;102166.41;6226185;28;20519;-68
2023/05/13 08:40:56;;;;;;;2.28;2.15;;;;;;;21.18;44.96;102171.38;6223495;28;20617;-68
2023/05/13 08:44:18;;;;;;;2.42;1.92;;;;;;;20.94;44.40;102166.75;6221893;28;20233;-68
2023/05/13 08:47:47;;;;;;;2.80;2.10;;;;;;;21.11;45.16;102173.97;6225805;28;20235;-67
2023/05/13 08:51:09;;;;;;;4.10;2.58;;;;;;;21.46;50.92;102168.06;6213820;28;20236;-67
2023/05/13 08:54:31;;;;;;;3.05;2.75;;;;;;;21.61;46.82;102167.34;6226617;28;20241;-68
2023/05/13 08:57:53;;;;;;;3.13;2.92;;;;;;;21.67;45.32;102175.75;6215287;28;20256;-68
2023/05/13 09:01:15;;;;;;;2.92;2.63;;;;;;;21.62;46.09;102169.06;6226663;28;20236;-68
2023/05/13 09:04:40;;;;;;;3.03;2.67;;;;;;;21.48;46.64;102170.66;6230331;28;20228;-68
2023/05/13 09:08:07;;;;;;;2.47;2.25;;;;;;;21.49;44.26;102173.22;6220431;28;20225;-67
2023/05/13 09:11:28;;;;;;;4.47;2.38;;;;;;;21.61;44.13;102170.94;6225203;28;20236;-67
2023/05/13 09:14:51;;;;;;;1.95;1.70;;;;;;;21.80;43.93;102183.44;6219030;28;20228;-66
2023/05/13 09:18:12;;;;;;;1.98;1.85;;;;;;;21.95;43.70;102167.94;6231122;28;20229;-67
2023/05/13 09:21:35;;;;;;;4.35;1.95;;;;;;;22.26;44.49;102177.03;6218285;28;20221;-68
2023/05/13 09:24:56;;;;;;;3.03;1.90;;;;;;;22.20;43.90;102177.75;6232936;28;20263;-68
2023/05/13 09:28:17;;;;;;;6.07;2.65;;;;;;;22.46;43.46;102166.44;6209165;28;20327;-67
2023/05/13 09:31:39;;;;;;;3.92;1.88;;;;;;;22.56;43.84;102165.16;6217731;28;20637;-66
2023/05/13 09:35:08;;;;;;;4.25;2.20;;;;;;;22.47;44.87;102171.75;6222931;28;20245;-67
2023/05/13 09:38:30;;;;;;;2.40;2.20;;;;;;;22.29;42.11;102168.44;6211624;28;20240;-67
2023/05/13 09:41:52;;;;;;;4.28;2.25;;;;;;;22.40;41.56;102165.28;6215861;28;20606;-67
2023/05/13 09:45:15;;;;;;;2.92;2.15;;;;;;;22.48;42.38;102169.88;6226587;28;20233;-67
2023/05/13 09:48:43;;;;;;;4.65;2.63;;;;;;;22.34;42.31;102171.50;6214574;28;20233;-68
2023/05/13 09:52:08;;;;;;;3.20;2.55;;;;;;;22.49;42.11;102172.41;6207712;28;20775;-68
2023/05/13 09:55:30;;;;;;;2.83;2.15;;;;;;;22.56;41.59;102167.91;6208750;28;20233;-68
2023/05/13 09:58:52;;;;;;;2.70;2.50;;;;;;;22.26;41.52;102166.03;6185887;28;20230;-68
2023/05/13 10:02:15;;;;;;;3.22;2.30;;;;;;;22.76;42.16;102158.16;6207134;28;20220;-68
2023/05/13 10:05:38;;;;;;;2.78;2.33;;;;;;;22.78;41.47;102161.59;6206351;28;20229;-67
2023/05/13 10:09:02;;;;;;;2.45;2.22;;;;;;;22.94;41.79;102158.72;6205152;28;20232;-67
2023/05/13 10:12:25;;;;;;;2.88;2.42;;;;;;;23.10;40.58;102168.69;6222641;28;20251;-68
2023/05/13 10:15:49;;;;;;;4.90;2.75;;;;;;;23.19;39.90;102161.22;6229027;28;20240;-67
2023/05/13 10:19:10;;;;;;;4.50;2.70;;;;;;;22.60;39.38;102171.19;6219709;28;20221;-67
2023/05/13 10:22:33;;;;;;;1.73;1.55;;;;;;;22.57;38.76;102157.78;6210142;28;20228;-67
2023/05/13 10:25:55;;;;;;;2.92;2.63;;;;;;;22.06;39.52;102153.81;6227657;28;20221;-68
2023/05/13 10:29:16;;;;;;;3.75;2.78;;;;;;;22.31;39.38;102147.13;6204811;28;20273;-69
2023/05/13 10:32:38;;;;;;;4.05;3.05;;;;;;;22.57;39.28;102158.63;6199479;28;20741;-68
2023/05/13 10:36:17;;;;;;;4.43;2.35;;;;;;;22.46;37.32;102150.81;6218021;28;20224;-68
2023/05/13 10:40:10;;;;;;;3.08;2.78;;;;;;;22.30;37.70;102148.16;6226014;28;20229;-68
2023/05/13 10:43:31;;;;;;;4.25;3.92;;;;;;;23.32;39.47;102143.03;6210914;28;20228;-70
2023/05/13 10:46:55;;;;;;;3.45;3.15;;;;;;;23.39;37.49;102145.91;6217112;28;20232;-69
2023/05/13 10:50:23;;;;;;;6.28;3.00;;;;;;;22.53;36.20;102139.94;6217957;28;20229;-69
2023/05/13 10:53:47;;;;;;;2.17;1.98;;;;;;;22.90;37.51;102142.75;6203192;28;20843;-71
2023/05/13 10:57:10;;;;;;;7.88;2.05;;;;;;;22.72;35.94;102142.22;6209429;28;20236;-71
2023/05/13 11:00:32;;;;;;;2.80;2.55;;;;;;;22.27;36.18;102143.03;6229400;28;20239;-70
2023/05/13 11:03:54;;;;;;;3.58;1.88;;;;;;;23.21;36.46;102134.38;6205723;28;20343;-69
2023/05/13 11:07:16;;;;;;;1.90;1.77;;;;;;;23.79;35.12;102128.91;6215228;28;20256;-70
2023/05/13 11:10:36;;;;;;;6.97;2.40;;;;;;;23.94;33.89;102134.38;6218229;28;20224;-70
2023/05/13 11:14:08;;;;;;;2.88;1.77;;;;;;;24.27;34.29;102132.91;6175890;28;20258;-70
2023/05/13 11:17:32;;;;;;;3.70;1.83;;;;;;;24.74;34.20;102129.63;6211130;28;20263;-69
2023/05/13 11:20:53;;;;;;;3.35;2.10;;;;;;;23.97;32.67;102121.06;6220678;28;20319;-70
2023/05/13 11:24:17;;;;;;;3.17;2.30;;;;;;;23.85;33.60;102125.38;6189157;28;20323;-70
2023/05/13 11:27:39;;;;;;;2.33;2.13;;;;;;;24.54;33.43;102121.97;6208670;28;20249;-70
2023/05/13 11:31:16;;;;;;;3.45;2.28;;;;;;;23.91;34.02;102110.81;6229482;28;20233;-71
2023/05/13 11:34:37;;;;;;;2.38;2.17;;;;;;;24.56;34.62;102121.75;6217192;28;20224;-71
2023/05/13 11:38:00;;;;;;;2.80;2.60;;;;;;;24.56;33.66;102113.50;6205181;28;20229;-71
2023/05/13 11:41:21;;;;;;;3.33;1.85;;;;;;;24.60;34.20;102106.53;6223588;28;20233;-71
2023/05/13 11:44:46;;;;;;;2.85;2.63;;;;;;;24.63;33.59;102108.03;6214449;28;20308;-70
2023/05/13 11:48:19;;;;;;;3.33;2.05;;;;;;;24.21;33.47;102101.47;6197805;28;20228;-71
2023/05/13 11:51:40;;;;;;;4.38;2.20;;;;;;;24.44;33.75;102098.53;6208869;28;20232;-70
2023/05/13 11:55:01;;;;;;;2.47;2.28;;;;;;;24.93;33.64;102102.19;6222201;28;20240;-70
2023/05/13 11:58:22;;;;;;;2.08;1.88;;;;;;;25.23;33.64;102097.31;6210469;28;20232;-71
2023/05/13 12:01:43;;;;;;;2.35;2.20;;;;;;;25.16;33.40;102099.16;6208479;28;20268;-71
2023/05/13 12:05:07;;;;;;;3.22;2.35;;;;;;;25.04;32.93;102101.63;6228162;28;20604;-70
2023/05/13 12:08:28;;;;;;;4.57;2.90;;;;;;;25.02;32.51;102097.38;6213327;28;20228;-71
2023/05/13 12:11:50;;;;;;;4.50;3.60;;;;;;;24.85;32.16;102110.59;6215286;28;20259;-71
2023/05/13 12:15:14;;;;;;;5.35;2.00;;;;;;;24.44;33.29;102099.38;6226827;28;20232;-72
2023/05/13 12:18:35;;;;;;;2.85;2.40;;;;;;;24.17;33.03;102107.56;6215862;28;20544;-70
2023/05/13 12:21:59;;;;;;;2.45;2.25;;;;;;;23.93;33.91;102111.47;6221184;28;20700;-70
2023/05/13 12:25:37;;;;;;;4.32;2.38;;;;;;;24.98;32.42;102107.09;6229531;28;20802;-72
2023/05/13 12:28:59;;;;;;;5.82;2.45;;;;;;;25.15;32.07;102111.28;6217326;28;20232;-71
2023/05/13 12:32:20;;;;;;;1.88;1.77;;;;;;;25.92;31.88;102109.19;6220962;28;20245;-70
2023/05/13 12:35:41;;;;;;;2.30;2.10;;;;;;;27.96;29.73;102095.16;6229930;28;20232;-69
2023/05/13 12:39:05;;;;;;;4.45;4.05;;;;;;;30.25;26.29;102101.34;6218464;28;20228;-71
2023/05/13 12:42:27;;;;;;;3.35;2.08;;;;;;;30.34;24.93;102099.97;6225781;28;20221;-70
2023/05/13 12:45:53;;;;;;;4.93;2.05;;;;;;;32.96;23.25;102095.53;6217000;28;20527;-71
2023/05/13 12:49:14;;;;;;;2.00;1.85;;;;;;;34.80;20.75;102093.75;6203022;28;20236;-71
2023/05/13 12:52:35;;;;;;;1.70;1.60;;;;;;;33.35;21.75;102101.22;6215346;28;20240;-71
2023/05/13 12:55:57;;;;;;;3.78;2.03;;;;;;;33.04;21.68;102100.72;6229687;28;22246;-71
2023/05/13 12:59:18;;;;;;;2.58;2.38;;;;;;;28.44;25.44;102106.63;6222793;28;20228;-71
2023/05/13 13:02:40;;;;;;;1.92;1.75;;;;;;;26.56;27.75;102113.22;6218309;28;20228;-71
2023/05/13 13:06:01;;;;;;;5.65;2.08;;;;;;;31.17;24.33;102097.97;6218885;28;20236;-70
2023/05/13 13:09:22;;;;;;;2.33;2.05;;;;;;;33.62;21.47;102105.84;6217354;28;20521;-71
2023/05/13 13:12:44;;;;;;;3.50;2.05;;;;;;;31.34;21.68;102109.25;6218255;28;20228;-70
2023/05/13 13:16:06;;;;;;;2.72;1.60;;;;;;;30.33;23.12;102105.78;6225814;28;20270;-70
2023/05/13 13:19:26;;;;;;;3.20;1.98;;;;;;;28.73;23.64;102100.44;6231909;28;20645;-70
2023/05/13 13:22:48;;;;;;;2.05;1.90;;;;;;;31.31;22.58;102099.41;6206430;28;20234;-70
2023/05/13 13:26:10;;;;;;;1.67;1.40;;;;;;;33.44;21.13;102086.50;6223333;28;20237;-71
2023/05/13 13:29:32;;;;;;;2.95;1.75;;;;;;;34.73;19.39;102081.09;6219038;28;20228;-69
2023/05/13 13:32:53;;;;;;;2.38;2.15;;;;;;;35.49;18.82;102085.31;6222246;28;20252;-70
2023/05/13 13:36:14;;;;;;;1.63;1.52;;;;;;;35.82;18.97;102076.53;6236363;28;20224;-71
2023/05/13 13:39:34;;;;;;;1.30;1.20;;;;;;;34.21;18.54;102083.63;6219469;28;20501;-70
2023/05/13 13:42:55;;;;;;;2.22;1.88;;;;;;;29.89;22.07;102084.75;6222972;28;20221;-71
2023/05/13 13:46:17;;;;;;;1.73;1.63;;;;;;;27.96;24.05;102088.72;6208364;28;20228;-70
2023/05/13 13:49:38;;;;;;;3.28;2.03;;;;;;;26.71;25.76;102090.88;6228416;28;20308;-71
2023/05/13 13:52:59;;;;;;;6.35;1.70;;;;;;;26.65;26.48;102089.81;6221742;28;20659;-70
2023/05/13 13:56:21;;;;;;;2.15;1.95;;;;;;;30.52;23.23;102068.47;6224247;28;20228;-70
2023/05/13 13:59:41;;;;;;;2.70;1.50;;;;;;;31.60;20.62;102071.66;6228374;28;20228;-70
2023/05/13 14:03:03;;;;;;;1.42;1.20;;;;;;;31.34;20.91;102065.47;6205123;28;20739;-70
2023/05/13 14:06:24;;;;;;;1.38;1.27;;;;;;;30.76;22.09;102068.25;6218883;28;20532;-70
2023/05/13 14:09:45;;;;;;;2.40;1.60;;;;;;;30.75;22.51;102062.91;6220761;28;20490;-70
2023/05/13 14:13:09;;;;;;;2.10;1.60;;;;;;;29.82;23.09;102056.16;6215423;28;20237;-71
2023/05/13 14:16:30;;;;;;;1.83;1.73;;;;;;;29.99;23.18;102058.09;6213815;28;20244;-70
2023/05/13 14:19:54;;;;;;;2.40;1.95;;;;;;;29.60;22.97;102064.09;6234761;28;20224;-70
2023/05/13 14:23:14;;;;;;;6.57;1.92;;;;;;;29.09;23.86;102060.81;6214740;28;20225;-70
2023/05/13 14:26:35;;;;;;;1.40;1.30;;;;;;;28.82;23.53;102048.28;6223609;28;20244;-70
2023/05/13 14:29:56;;;;;;;3.30;1.73;;;;;;;28.74;23.49;102052.19;6233133;28;20236;-70
2023/05/13 14:33:17;;;;;;;1.05;1.05;;;;;;;28.81;23.40;102041.03;6216750;28;20228;-70
2023/05/13 14:36:40;;;;;;;4.70;1.80;;;;;;;28.87;24.06;102043.72;6220618;28;20233;-69
2023/05/13 14:40:00;;;;;;;1.88;1.50;;;;;;;28.63;23.71;102041.81;6233699;28;20332;-70
2023/05/13 14:43:21;;;;;;;3.03;1.75;;;;;;;28.13;24.02;102038.09;6220265;28;20311;-70
2023/05/13 14:46:42;;;;;;;3.05;1.45;;;;;;;28.62;23.62;102031.78;6211488;28;20245;-70
2023/05/13 14:50:04;;;;;;;1.35;1.25;;;;;;;29.21;23.39;102042.34;6219441;28;20232;-71
2023/05/13 14:53:26;;;;;;;2.80;2.30;;;;;;;27.84;24.42;102047.00;6215901;28;20228;-70
2023/05/13 14:56:47;;;;;;;2.05;1.73;;;;;;;27.09;25.18;102044.03;6211096;28;20241;-71
2023/05/13 15:00:09;;;;;;;2.63;2.00;;;;;;;26.35;25.63;102041.47;6215833;28;20232;-71
2023/05/13 15:03:30;;;;;;;2.45;1.52;;;;;;;25.93;25.80;102048.16;6220090;28;20248;-70
2023/05/13 15:06:51;;;;;;;1.90;1.25;;;;;;;27.01;25.89;102044.25;6209795;28;20229;-71
2023/05/13 15:10:13;;;;;;;2.85;2.30;;;;;;;27.79;25.40;102030.16;6222088;28;20220;-71
2023/05/13 15:13:35;;;;;;;2.67;2.08;;;;;;;28.09;24.64;102034.09;6220147;28;20236;-70
2023/05/13 15:16:56;;;;;;;2.20;1.77;;;;;;;28.18;24.55;102034.66;6209940;28;20232;-71
2023/05/13 15:20:17;;;;;;;3.55;1.42;;;;;;;28.15;23.78;102026.78;6222219;28;20232;-71
2023/05/13 15:23:38;;;;;;;2.08;1.88;;;;;;;28.42;23.85;102015.28;6186251;28;20220;-71
2023/05/13 15:27:02;;;;;;;3.33;1.48;;;;;;;28.11;23.68;102020.84;6209794;28;20228;-71
2023/05/13 15:30:23;;;;;;;1.73;1.63;;;;;;;27.41;24.78;102021.81;6232651;28;20224;-70
2023/05/13 15:33:43;;;;;;;2.08;1.42;;;;;;;26.92;25.11;102032.56;6225516;28;20230;-70
2023/05/13 15:37:04;;;;;;;1.88;1.77;;;;;;;26.66;25.09;102019.56;6197614;28;20225;-70
2023/05/13 15:40:25;;;;;;;3.22;1.80;;;;;;;26.84;24.93;102022.56;6220841;28;20224;-70